»·PEaware :: N149CD KSBA-KSMO

N149CD :: KSBA-KSMO

FLIGHT INFORMATION

Flight Status: Arrived
Operator: Privately registered:
United States
More flights under this callsign
Pilot: Nathan E. (30132)
Aircraft: CESSNA 172 SKYHAWK
(C172)
More flights by this aircraft type
Origin: KSBA Santa Barbara Mun
United States
Destination: KSMO Santa Monica Mun
United States
More flights between these airports :: More routes between these airports
Route: KWANG CMA VNY V186 DARTS
File this flight plan on PilotEdge
Remarks: TEC route SBAP12
Altitude:
(Current/Filed)
5,000ft
Speed:
(Current/Filed)
110kts
Departed: 22-Dec-20 03:35 PM
Arrived: 22-Dec-20 04:31 PM
Distance/Time
Traveled:
73nm/0:55
Distance/Time
To Go:
Arrived

Flight Plot

Page will automatically refresh every two minutes.


Map Options




Map Legend


Flown Route
Filed Route
Departure Airport
Arrival Airport
Navaid (VOR, NDB)
Fix

Horizontal Profiles

Position Reports

Time Latitude Longitude Heading Altitude Ground
Speed
22-Dec-20 15:20 34.432569 -119.835086 71 13ft 0kts
22-Dec-20 15:21 34.432569 -119.835086 71 13ft 0kts
22-Dec-20 15:22 34.432569 -119.835086 71 13ft 0kts
22-Dec-20 15:23 34.432569 -119.835086 71 13ft 0kts
22-Dec-20 15:24 34.432569 -119.835086 71 13ft 0kts
22-Dec-20 15:25 34.432569 -119.835086 71 13ft 0kts
22-Dec-20 15:26 34.432569 -119.835086 71 13ft 0kts
22-Dec-20 15:27 34.432569 -119.835086 71 13ft 0kts
22-Dec-20 15:28 34.432569 -119.835086 71 13ft 0kts
22-Dec-20 15:29 34.432569 -119.835086 71 13ft 0kts
22-Dec-20 15:30 34.432569 -119.835086 71 13ft 0kts
22-Dec-20 15:31 34.430559 -119.835326 178 11ft 16kts
22-Dec-20 15:32 34.428679 -119.835078 179 10ft 0kts
22-Dec-20 15:33 34.428679 -119.835078 179 10ft 0kts
22-Dec-20 15:34 34.427778 -119.841386 264 39ft 72kts
22-Dec-20 15:35 34.428366 -119.869343 267 823ft 84kts
22-Dec-20 15:36 34.429414 -119.895635 267 1800ft 72kts
22-Dec-20 15:37 34.430439 -119.919791 267 2648ft 71kts
22-Dec-20 15:39 34.431277 -119.944273 267 3465ft 71kts
22-Dec-20 15:40 34.421374 -119.957505 144 4210ft 83kts
22-Dec-20 15:41 34.412595 -119.929580 106 4929ft 89kts
22-Dec-20 15:42 34.403360 -119.892708 107 5010ft 123kts
22-Dec-20 15:43 34.393459 -119.853024 107 5009ft 124kts
22-Dec-20 15:44 34.383274 -119.811995 107 5009ft 123kts
22-Dec-20 15:45 34.373174 -119.771284 107 5009ft 123kts
22-Dec-20 15:46 34.363185 -119.731067 107 5009ft 124kts
22-Dec-20 15:47 34.353091 -119.690485 107 5009ft 124kts
22-Dec-20 15:48 34.343031 -119.650101 107 5008ft 124kts
22-Dec-20 15:49 34.332989 -119.609851 107 5007ft 124kts
22-Dec-20 15:50 34.322759 -119.568913 107 5006ft 124kts
22-Dec-20 15:51 34.312599 -119.528316 107 5005ft 124kts
22-Dec-20 15:52 34.303041 -119.487726 105 5004ft 125kts
22-Dec-20 15:53 34.293729 -119.447063 105 5003ft 125kts
22-Dec-20 15:53 34.285953 -119.413109 105 5002ft 125kts
22-Dec-20 15:55 34.275039 -119.365514 105 5002ft 125kts
22-Dec-20 15:56 34.265717 -119.324934 106 4999ft 125kts
22-Dec-20 15:56 34.257935 -119.291103 106 4999ft 125kts
22-Dec-20 15:58 34.247031 -119.243777 106 4999ft 125kts
22-Dec-20 15:58 34.239232 -119.209987 106 4999ft 125kts
22-Dec-20 15:59 34.229844 -119.169377 106 4999ft 125kts
22-Dec-20 16:00 34.220428 -119.128707 106 5000ft 125kts
22-Dec-20 16:01 34.213263 -119.087475 89 5002ft 126kts
22-Dec-20 16:02 34.213611 -119.044882 87 5001ft 126kts
22-Dec-20 16:03 34.214359 -119.002216 87 5001ft 127kts
22-Dec-20 16:05 34.215335 -118.952320 87 5001ft 127kts
22-Dec-20 16:05 34.216033 -118.916336 87 5000ft 128kts
22-Dec-20 16:06 34.216853 -118.873106 87 5000ft 129kts
22-Dec-20 16:07 34.217663 -118.829620 87 5000ft 129kts
22-Dec-20 16:08 34.218465 -118.785962 88 5000ft 130kts
22-Dec-20 16:09 34.219251 -118.742325 89 4997ft 129kts
22-Dec-20 16:10 34.220009 -118.699149 90 4994ft 128kts
22-Dec-20 16:11 34.222673 -118.656472 82 4991ft 127kts
22-Dec-20 16:12 34.227336 -118.618330 81 4985ft 103kts
22-Dec-20 16:13 34.230298 -118.583924 81 4984ft 103kts
22-Dec-20 16:14 34.232783 -118.549198 82 4981ft 103kts
22-Dec-20 16:15 34.235341 -118.514495 81 4981ft 103kts
22-Dec-20 16:16 34.238229 -118.480035 81 4980ft 103kts
22-Dec-20 16:17 34.241490 -118.445379 81 4980ft 103kts
22-Dec-20 16:18 34.245086 -118.410654 81 4980ft 104kts
22-Dec-20 16:19 34.244547 -118.373129 137 4979ft 117kts
22-Dec-20 16:20 34.221033 -118.346231 140 4712ft 116kts
22-Dec-20 16:21 34.197778 -118.318877 139 4286ft 116kts
22-Dec-20 16:22 34.174046 -118.290874 133 4282ft 122kts
22-Dec-20 16:23 34.146797 -118.290887 242 3969ft 125kts
22-Dec-20 16:24 34.125668 -118.321086 226 3453ft 116kts
22-Dec-20 16:25 34.102277 -118.348886 226 2823ft 118kts
22-Dec-20 16:26 34.078934 -118.376579 226 2099ft 116kts
22-Dec-20 16:27 34.055985 -118.403772 226 1367ft 113kts
22-Dec-20 16:28 34.035886 -118.427550 227 762ft 75kts
22-Dec-20 16:29 34.022679 -118.443166 228 292ft 64kts
22-Dec-20 16:30 34.014763 -118.452878 276 134ft 10kts
22-Dec-20 16:31 34.015874 -118.452955 314 138ft 3kts

Navigation Log

Ident Type
Flight plan parsing failed, navigation log unavailable